NCAR-RAP Real-Time Weather Data

Output produced by METARs form (25 August 2019  22:51 UTC)
found at http://weather.rap.ucar.edu/surface/
 
KGRI 252153Z 13007KT 10SM OVC025 23/19 A2982 RMK AO2 SLP089 T02280189
KGRI 252053Z 14008KT 10SM BKN023 23/18 A2983 RMK AO2 SLP094 T02280183 58023
KGRI 251953Z 14008KT 10SM BKN016 OVC021 22/18 A2986 RMK AO2 SLP104 T02220183
KGRI 251918Z 15009KT 10SM SCT012 OVC018 21/18 A2988 RMK AO2 T02110183
KGRI 251911Z 16009KT 10SM FEW009 BKN014 OVC018 21/18 A2988 RMK AO2 T02110183
KGRI 251853Z 14006KT 10SM BKN007 OVC014 21/18 A2989 RMK AO2 CIG 006V011 SLP114 T02060183
KGRI 251753Z 13008KT 10SM OVC009 20/18 A2990 RMK AO2 CIG 007V013 SLP120 T02000178 10200 20178 50002
KGRI 251744Z 15007KT 10SM OVC009 20/18 A2991 RMK AO2 T02000178
KGRI 251653Z 15008KT 10SM OVC010 19/17 A2991 RMK AO2 SLP122 T01940172
KGRI 251616Z 14007KT 10SM BKN010 OVC014 19/17 A2992 RMK AO2 CIG 007V013 T01940172
KGRI 251553Z 16005KT 10SM OVC008 19/17 A2992 RMK AO2 CIG 007V011 SLP125 T01890172
KGRI 251453Z 13007KT 10SM OVC008 18/17 A2990 RMK AO2 SLP120 T01830167 56004
KGRI 251353Z 11008KT 10SM OVC007 18/16 A2990 RMK AO2 SLP119 T01780161
KGRI 251253Z 11007KT 10SM OVC006 18/16 A2990 RMK AO2 SLP121 T01780161
KGRI 251153Z 16007KT 10SM OVC009 18/16 A2991 RMK AO2 SLP123 60000 70057 T01780161 10189 20178 56010
KGRI 251053Z AUTO 14005KT 10SM OVC005 18/17 A2991 RMK AO2 SLP123 T01780167
KGRI 250953Z AUTO 13007KT 6SM BR OVC004 18/17 A2992 RMK AO2 SLP125 T01780167
KGRI 250853Z AUTO 12006KT 5SM BR OVC004 18/17 A2994 RMK AO2 SLP134 60000 T01830172 55007
KGRI 250819Z AUTO 13009KT 6SM BR OVC004 18/17 A2993 RMK AO2 T01830172
KGRI 250753Z AUTO 11006KT 5SM BR OVC006 18/17 A2994 RMK AO2 RAB13E38 CIG 004V008 SLP134 P0000 T01830172
KGRI 250653Z AUTO 13005KT 10SM OVC008 19/17 A2996 RMK AO2 SLP141 T01890172
KGRI 250553Z AUTO 14012G17KT 7SM OVC008 19/17 A2996 RMK AO2 SLP141 60001 T01890172 10206 20189 402110178 56015
KGRI 250453Z AUTO 13011KT 9SM BKN007 OVC013 19/18 A2997 RMK AO2 CIG 006V010 SLP143 T01890178
KGRI 250353Z AUTO 12009KT 7SM OVC006 19/18 A3000 RMK AO2 RAB01E16 SLP152 P0001 T01940178